Time;durP1;ratioP1;P1;durP2;ratioP2;P2;SDS_P1;SDS_P2;PMS_P1;PMS_P2;Temp;Humidity;BMP_temperature;BMP_pressure;BME280_temperature;BME280_humidity;BME280_pressure;Samples;Min_cycle;Max_cycle;Signal;HPM_P1;HPM_P2
2021/03/10 00:00:17;;;;;;;80.60;37.38;;;-3.50;70.70;;;;;;5072200;28;20029;-74
2021/03/10 00:02:43;;;;;;;99.05;41.63;;;-3.50;70.80;;;;;;5072150;28;20019;-75
2021/03/10 00:05:09;;;;;;;96.78;41.50;;;-3.50;70.90;;;;;;5072082;28;20041;-75
2021/03/10 00:07:36;;;;;;;102.05;40.83;;;-3.60;70.90;;;;;;5072315;28;20024;-74
2021/03/10 00:10:04;;;;;;;121.82;48.25;;;-3.60;70.90;;;;;;5072326;28;20031;-75
2021/03/10 00:12:30;;;;;;;129.30;53.70;;;-3.60;71.00;;;;;;5071016;28;20027;-74
2021/03/10 00:14:56;;;;;;;116.20;50.72;;;-3.70;71.00;;;;;;5071016;28;20702;-75
2021/03/10 00:17:21;;;;;;;132.82;53.80;;;-3.70;71.00;;;;;;5071701;28;20029;-75
2021/03/10 00:19:47;;;;;;;136.05;54.78;;;-3.70;71.10;;;;;;5072087;28;20059;-75
2021/03/10 00:22:14;;;;;;;151.27;63.00;;;-3.80;71.10;;;;;;5070807;28;20132;-76
2021/03/10 00:24:39;;;;;;;159.10;64.80;;;-3.80;71.10;;;;;;5072093;28;20020;-76
2021/03/10 00:27:05;;;;;;;153.70;64.18;;;-3.80;71.10;;;;;;5071833;28;20030;-75
2021/03/10 00:29:31;;;;;;;134.55;58.35;;;-3.80;71.30;;;;;;5070635;28;20491;-75
2021/03/10 00:31:57;;;;;;;117.93;48.67;;;-3.90;71.40;;;;;;5071910;28;20028;-75
2021/03/10 00:34:22;;;;;;;128.25;52.42;;;-3.90;71.40;;;;;;5071865;28;20024;-73
2021/03/10 00:36:49;;;;;;;136.75;58.03;;;-3.90;71.50;;;;;;5071686;28;20490;-73
2021/03/10 00:39:14;;;;;;;135.90;55.78;;;-3.90;71.60;;;;;;5071860;28;20486;-75
2021/03/10 00:41:40;;;;;;;121.38;48.47;;;-3.90;71.70;;;;;;5071709;28;20017;-74
2021/03/10 00:44:06;;;;;;;137.57;55.63;;;-3.90;71.80;;;;;;5071793;28;20367;-72
2021/03/10 00:46:32;;;;;;;139.48;55.25;;;-3.90;71.90;;;;;;5071897;28;20024;-74
2021/03/10 00:48:58;;;;;;;143.68;58.53;;;-3.90;72.00;;;;;;5071658;28;20032;-75
2021/03/10 00:51:23;;;;;;;141.93;60.40;;;-3.90;72.10;;;;;;5071670;28;20036;-74
2021/03/10 00:53:49;;;;;;;134.10;54.55;;;-3.90;72.20;;;;;;5071694;28;20112;-74
2021/03/10 00:56:15;;;;;;;151.13;61.08;;;-3.90;72.30;;;;;;5071916;28;20028;-74
2021/03/10 00:58:40;;;;;;;138.60;57.97;;;-4.00;72.20;;;;;;5071883;28;20131;-74
2021/03/10 01:01:06;;;;;;;144.18;60.08;;;-3.90;72.40;;;;;;5071494;28;20051;-74
2021/03/10 01:03:32;;;;;;;143.73;60.00;;;-4.00;72.30;;;;;;5071296;28;20067;-73
2021/03/10 01:05:57;;;;;;;146.20;61.28;;;-4.00;72.40;;;;;;5071425;28;20432;-74
2021/03/10 01:08:23;;;;;;;130.18;53.22;;;-4.00;72.40;;;;;;5071483;28;20460;-74
2021/03/10 01:10:49;;;;;;;118.15;50.10;;;-4.00;72.50;;;;;;5071467;28;20024;-74
2021/03/10 01:13:15;;;;;;;115.70;50.38;;;-4.10;72.50;;;;;;5071549;28;20028;-73
2021/03/10 01:15:41;;;;;;;127.07;50.47;;;-4.10;72.50;;;;;;5071553;28;20402;-76
2021/03/10 01:18:07;;;;;;;107.50;46.40;;;-4.10;72.80;;;;;;5071360;28;20021;-75
2021/03/10 01:20:33;;;;;;;107.32;47.20;;;-4.10;72.50;;;;;;5071461;28;20352;-75
2021/03/10 01:22:59;;;;;;;107.38;45.25;;;-4.10;72.60;;;;;;5071636;28;20095;-75
2021/03/10 01:25:25;;;;;;;122.40;49.20;;;-4.10;72.60;;;;;;5070405;28;20024;-75
2021/03/10 01:27:51;;;;;;;99.05;45.10;;;-4.10;72.70;;;;;;5071657;28;20386;-74
2021/03/10 01:30:18;;;;;;;103.18;45.58;;;-4.10;72.70;;;;;;5072846;28;20035;-75
2021/03/10 01:32:44;;;;;;;115.82;48.35;;;-4.20;72.60;;;;;;5075393;28;20025;-73
2021/03/10 01:35:11;;;;;;;101.45;43.17;;;-4.20;72.60;;;;;;5073839;28;20024;-74
2021/03/10 01:37:37;;;;;;;85.70;40.63;;;-4.20;72.60;;;;;;5074981;28;20024;-73
2021/03/10 01:40:09;;;;;;;93.13;40.53;;;-4.20;72.60;;;;;;5073609;28;20143;-73
2021/03/10 01:42:35;;;;;;;85.65;39.05;;;-4.20;72.70;;;;;;5075049;28;20101;-73
2021/03/10 01:45:03;;;;;;;99.90;40.95;;;-4.20;72.80;;;;;;5074997;28;20020;-74
2021/03/10 01:47:29;;;;;;;79.40;35.85;;;-4.30;72.80;;;;;;5073500;28;20189;-73
2021/03/10 01:49:55;;;;;;;69.00;33.90;;;-4.20;72.80;;;;;;5074724;28;20029;-73
2021/03/10 01:52:21;;;;;;;76.45;34.85;;;-4.30;72.80;;;;;;5074859;28;20091;-73
2021/03/10 01:54:47;;;;;;;72.95;31.55;;;-4.30;72.70;;;;;;5074831;28;20021;-73
2021/03/10 01:57:12;;;;;;;68.15;30.90;;;-4.30;72.80;;;;;;5074718;28;20356;-74
2021/03/10 01:59:38;;;;;;;64.70;29.30;;;-4.30;72.90;;;;;;5074708;28;20479;-74
2021/03/10 02:02:04;;;;;;;65.65;29.02;;;-4.30;73.00;;;;;;5074753;28;20024;-75
2021/03/10 02:04:30;;;;;;;62.80;29.60;;;-4.40;73.00;;;;;;5074573;28;20486;-74
2021/03/10 02:06:56;;;;;;;54.22;26.50;;;-4.40;73.00;;;;;;5074835;28;20029;-74
2021/03/10 02:09:44;;;;;;;49.90;23.38;;;-4.40;73.00;;;;;;5074526;28;20025;-74
2021/03/10 02:12:23;;;;;;;46.70;22.85;;;-4.40;73.10;;;;;;5074580;28;20024;-74
2021/03/10 02:15:11;;;;;;;53.08;26.05;;;-4.40;73.00;;;;;;5073246;28;20028;-74
2021/03/10 02:17:41;;;;;;;62.42;27.23;;;-4.40;73.10;;;;;;5074377;28;20046;-74
2021/03/10 02:20:17;;;;;;;64.65;31.50;;;-4.40;73.00;;;;;;5074367;28;20416;-74
2021/03/10 02:23:01;;;;;;;65.43;30.15;;;-4.40;72.90;;;;;;5072964;28;20111;-75
2021/03/10 02:25:48;;;;;;;66.32;28.63;;;-4.40;72.90;;;;;;5073170;28;20051;-74
2021/03/10 02:28:14;;;;;;;75.35;32.35;;;-4.40;73.20;;;;;;5074064;28;20024;-75
2021/03/10 02:30:44;;;;;;;70.25;31.13;;;-4.50;72.80;;;;;;5074103;28;20111;-74
2021/03/10 02:33:11;;;;;;;61.10;29.02;;;-4.50;72.80;;;;;;5074313;28;20078;-75
2021/03/10 02:35:47;;;;;;;70.47;32.17;;;-4.50;72.80;;;;;;5074043;28;20025;-75
2021/03/10 02:38:23;;;;;;;75.50;37.20;;;-4.50;72.80;;;;;;5073837;28;20052;-75
2021/03/10 02:40:51;;;;;;;80.57;37.50;;;-4.50;72.80;;;;;;5072758;28;20075;-74
2021/03/10 02:43:18;;;;;;;80.30;38.30;;;-4.50;72.80;;;;;;5073908;28;20078;-74
2021/03/10 02:45:45;;;;;;;102.93;42.65;;;-4.50;72.80;;;;;;5073874;28;20025;-74
2021/03/10 02:48:12;;;;;;;98.03;41.20;;;-4.50;72.80;;;;;;5073882;28;20108;-74
2021/03/10 02:50:39;;;;;;;88.20;39.90;;;-4.50;72.90;;;;;;5073596;28;20029;-74
2021/03/10 02:53:08;;;;;;;77.23;36.97;;;-4.50;72.90;;;;;;5073691;28;20107;-74
2021/03/10 02:55:34;;;;;;;94.93;42.67;;;-4.60;72.90;;;;;;5072454;28;20112;-75
2021/03/10 02:58:00;;;;;;;102.15;44.85;;;-4.60;72.90;;;;;;5073515;28;20067;-75
2021/03/10 03:00:27;;;;;;;103.38;44.80;;;-4.60;72.90;;;;;;5072350;28;20021;-75
2021/03/10 03:02:53;;;;;;;87.03;40.78;;;-4.60;72.90;;;;;;5073416;28;20019;-74
2021/03/10 03:05:18;;;;;;;90.88;42.15;;;-4.60;72.90;;;;;;5073536;28;20041;-75
2021/03/10 03:07:45;;;;;;;87.55;40.47;;;-4.60;72.90;;;;;;5073436;28;20379;-74
2021/03/10 03:10:16;;;;;;;81.28;36.53;;;-4.60;72.90;;;;;;5072067;28;20056;-76
2021/03/10 03:12:43;;;;;;;83.10;35.40;;;-4.60;73.00;;;;;;5073522;28;20588;-74
2021/03/10 03:15:13;;;;;;;79.45;33.20;;;-4.70;73.00;;;;;;5073403;28;20039;-75
2021/03/10 03:17:40;;;;;;;78.07;31.25;;;-4.70;72.90;;;;;;5073373;28;20181;-75
2021/03/10 03:20:06;;;;;;;77.75;32.63;;;-4.70;73.00;;;;;;5073459;28;20753;-75
2021/03/10 03:22:33;;;;;;;80.03;31.48;;;-4.70;73.00;;;;;;5071997;28;20025;-75
2021/03/10 03:24:59;;;;;;;94.07;38.97;;;-4.70;73.10;;;;;;5073340;28;20036;-75
2021/03/10 03:27:26;;;;;;;116.78;46.63;;;-4.80;73.10;;;;;;5071973;28;20021;-74
2021/03/10 03:29:57;;;;;;;137.57;52.45;;;-4.80;73.10;;;;;;5071795;28;20031;-75
2021/03/10 03:32:27;;;;;;;130.48;53.28;;;-4.80;73.10;;;;;;5072910;28;20103;-75
2021/03/10 03:34:54;;;;;;;136.40;55.07;;;-4.80;73.20;;;;;;5072826;28;20016;-74
2021/03/10 03:37:22;;;;;;;136.23;55.88;;;-4.80;73.20;;;;;;5072653;28;20032;-73
2021/03/10 03:39:49;;;;;;;114.75;46.40;;;-4.80;73.20;;;;;;5072721;28;20054;-73
2021/03/10 03:42:16;;;;;;;113.30;47.42;;;-4.80;73.20;;;;;;5072729;28;20493;-76
2021/03/10 03:44:42;;;;;;;130.23;58.13;;;-4.90;73.30;;;;;;5071475;28;20025;-75
2021/03/10 03:47:11;;;;;;;104.37;50.27;;;-4.80;73.40;;;;;;5071312;28;20031;-75
2021/03/10 03:49:41;;;;;;;114.25;52.38;;;-4.90;73.30;;;;;;5072624;28;20020;-76
2021/03/10 03:52:07;;;;;;;112.13;49.53;;;-4.90;73.50;;;;;;5072405;28;20054;-75
2021/03/10 03:54:33;;;;;;;104.07;46.92;;;-4.90;73.50;;;;;;5072427;28;20048;-76
2021/03/10 03:56:59;;;;;;;99.43;42.97;;;-4.90;73.50;;;;;;5072269;28;20024;-74
2021/03/10 03:59:25;;;;;;;92.07;43.40;;;-4.90;73.60;;;;;;5072170;28;20352;-74
2021/03/10 04:01:50;;;;;;;93.97;44.50;;;-4.90;73.60;;;;;;5071117;28;20038;-74
2021/03/10 04:04:16;;;;;;;97.93;45.60;;;-4.90;73.70;;;;;;5070894;28;20045;-75
2021/03/10 04:06:48;;;;;;;87.97;40.35;;;-4.90;73.80;;;;;;5071908;28;20103;-72
2021/03/10 04:09:14;;;;;;;63.45;29.95;;;-4.90;73.90;;;;;;5072062;28;20108;-73
2021/03/10 04:11:43;;;;;;;77.90;36.78;;;-4.90;73.80;;;;;;5071818;28;20028;-75
2021/03/10 04:14:09;;;;;;;107.55;47.30;;;-4.90;73.90;;;;;;5071742;28;20107;-74
2021/03/10 04:16:35;;;;;;;105.60;46.33;;;-4.90;74.00;;;;;;5071726;28;20104;-73
2021/03/10 04:19:00;;;;;;;99.15;44.47;;;-4.80;74.10;;;;;;5071816;28;20486;-73
2021/03/10 04:21:26;;;;;;;103.85;43.40;;;-4.80;74.20;;;;;;5070479;28;20024;-75
2021/03/10 04:23:52;;;;;;;98.97;42.55;;;-4.70;74.60;;;;;;5071905;28;20028;-73
2021/03/10 04:26:17;;;;;;;93.95;39.30;;;-4.50;75.50;;;;;;5071673;28;20110;-74
2021/03/10 04:28:43;;;;;;;78.32;36.55;;;-4.20;76.50;;;;;;5071739;28;20032;-74
2021/03/10 04:31:09;;;;;;;88.38;35.25;;;-3.70;77.20;;;;;;5070167;28;20068;-73
2021/03/10 04:33:34;;;;;;;71.75;32.55;;;-3.10;77.70;;;;;;5072201;28;20039;-74
2021/03/10 04:36:00;;;;;;;116.40;41.22;;;-2.40;78.00;;;;;;5071611;28;20360;-74
2021/03/10 04:38:26;;;;;;;90.75;41.00;;;-1.70;78.00;;;;;;5071699;28;20098;-74
2021/03/10 04:40:52;;;;;;;93.25;40.78;;;-0.90;77.80;;;;;;5071854;28;20020;-74
2021/03/10 04:43:17;;;;;;;92.90;40.28;;;-0.20;77.20;;;;;;5071643;28;20025;-74
2021/03/10 04:45:43;;;;;;;97.57;40.15;;;0.60;76.30;;;;;;5071632;28;20035;-74
2021/03/10 04:48:09;;;;;;;86.55;38.55;;;1.30;75.30;;;;;;5071557;28;20486;-74
2021/03/10 04:50:34;;;;;;;83.47;38.60;;;2.00;74.10;;;;;;5071669;28;20141;-76
2021/03/10 04:53:00;;;;;;;75.43;34.53;;;2.70;73.00;;;;;;5071451;28;20099;-74
2021/03/10 04:55:26;;;;;;;72.10;32.22;;;3.30;70.90;;;;;;5071631;28;20035;-74
2021/03/10 04:57:51;;;;;;;57.42;28.77;;;3.80;69.40;;;;;;5071699;28;20029;-75
2021/03/10 05:00:18;;;;;;;57.55;30.02;;;4.30;68.50;;;;;;5070237;28;20021;-74
2021/03/10 05:02:43;;;;;;;57.80;29.50;;;4.90;67.40;;;;;;5071401;28;20420;-75
2021/03/10 05:05:09;;;;;;;59.35;30.17;;;5.50;66.20;;;;;;5073754;28;20041;-76
2021/03/10 05:07:35;;;;;;;58.78;31.63;;;6.20;64.80;;;;;;5077766;28;20044;-84
2021/03/10 05:10:01;;;;;;;62.90;32.83;;;6.70;63.40;;;;;;5076411;28;20486;-84
2021/03/10 05:12:30;;;;;;;56.55;31.15;;;7.40;61.80;;;;;;5077388;28;20029;-85
2021/03/10 05:14:57;;;;;;;65.28;32.53;;;8.00;60.30;;;;;;5078077;28;20031;-87
2021/03/10 05:17:23;;;;;;;52.85;30.17;;;8.70;58.90;;;;;;5077452;28;20059;-84
2021/03/10 05:19:49;;;;;;;66.45;30.63;;;9.20;57.40;;;;;;5077507;28;20052;-85
2021/03/10 05:22:14;;;;;;;53.38;30.80;;;9.80;55.70;;;;;;5077074;28;20029;-84
2021/03/10 05:24:40;;;;;;;56.83;31.67;;;10.30;54.40;;;;;;5077424;28;20078;-86
2021/03/10 05:27:06;;;;;;;58.97;33.92;;;10.80;53.00;;;;;;5077093;28;20131;-86
2021/03/10 05:29:32;;;;;;;67.60;36.05;;;11.30;51.80;;;;;;5077169;28;20539;-85
2021/03/10 05:31:57;;;;;;;59.15;34.03;;;11.50;50.20;;;;;;5076423;28;20502;-85
2021/03/10 05:34:23;;;;;;;56.63;32.70;;;11.90;49.60;;;;;;5082227;28;20170;-85
2021/03/10 05:36:49;;;;;;;60.08;34.40;;;12.30;48.50;;;;;;5082604;28;20032;-86
2021/03/10 05:39:15;;;;;;;55.92;32.75;;;12.80;47.70;;;;;;5077419;28;20031;-86
2021/03/10 05:41:42;;;;;;;59.45;33.20;;;13.10;46.50;;;;;;5077642;28;20108;-86
2021/03/10 05:44:08;;;;;;;50.67;31.15;;;13.30;45.30;;;;;;5077479;28;20095;-86
2021/03/10 05:46:34;;;;;;;53.97;32.25;;;13.60;44.90;;;;;;5076212;28;20530;-85
2021/03/10 05:48:59;;;;;;;59.13;32.40;;;13.90;44.30;;;;;;5076852;28;20029;-85
2021/03/10 05:51:25;;;;;;;55.70;31.90;;;14.30;43.60;;;;;;5074936;28;20067;-85
2021/03/10 05:53:52;;;;;;;60.13;34.47;;;14.50;42.80;;;;;;5074486;28;20108;-86
2021/03/10 05:56:17;;;;;;;37.67;24.08;;;14.70;42.00;;;;;;5074013;28;20040;-86
2021/03/10 05:58:56;;;;;;;47.25;27.75;;;14.90;41.40;;;;;;5074162;28;20098;-87
2021/03/10 06:01:22;;;;;;;46.80;28.38;;;15.00;40.70;;;;;;5073061;28;20101;-85
2021/03/10 06:03:59;;;;;;;51.65;29.42;;;15.10;40.30;;;;;;5072550;28;20049;-85
2021/03/10 06:06:26;;;;;;;48.47;31.05;;;15.00;39.50;;;;;;5073627;28;20064;-86
2021/03/10 06:08:52;;;;;;;45.35;27.75;;;15.10;40.10;;;;;;5073167;28;20111;-85
2021/03/10 06:11:25;;;;;;;43.95;27.08;;;15.30;39.20;;;;;;5072442;28;20515;-86
2021/03/10 06:13:52;;;;;;;47.50;27.83;;;15.60;38.80;;;;;;5070736;28;20028;-76
2021/03/10 06:16:25;;;;;;;55.70;29.65;;;15.80;38.30;;;;;;5070416;28;20120;-76
2021/03/10 06:19:04;;;;;;;57.58;26.98;;;16.10;37.60;;;;;;5071052;28;20029;-76
2021/03/10 06:21:30;;;;;;;59.10;34.33;;;16.30;37.00;;;;;;5054290;28;20439;-76
2021/03/10 06:23:56;;;;;;;57.47;35.13;;;16.50;36.50;;;;;;5072910;28;20076;-75
2021/03/10 06:26:24;;;;;;;66.72;38.53;;;16.50;35.80;;;;;;5072902;28;20099;-76
2021/03/10 06:28:52;;;;;;;79.20;44.28;;;16.30;35.40;;;;;;5073077;28;20028;-76
2021/03/10 06:31:23;;;;;;;105.25;50.03;;;16.10;35.20;;;;;;5072996;28;20160;-75
2021/03/10 06:34:09;;;;;;;95.85;53.83;;;15.90;35.10;;;;;;5073122;28;20021;-76
2021/03/10 06:36:38;;;;;;;113.40;55.35;;;15.70;35.00;;;;;;5073321;28;20032;-76
2021/03/10 06:39:06;;;;;;;114.18;68.72;;;15.40;35.00;;;;;;5073010;28;20100;-76
2021/03/10 06:41:35;;;;;;;120.50;69.55;;;15.20;35.30;;;;;;5072754;28;20017;-76
2021/03/10 06:44:01;;;;;;;134.02;68.30;;;15.10;35.40;;;;;;5072901;28;20091;-75
2021/03/10 06:46:27;;;;;;;156.63;65.88;;;15.10;35.50;;;;;;5072569;28;20036;-75
2021/03/10 06:48:58;;;;;;;102.13;58.47;;;15.10;35.40;;;;;;5072353;28;20088;-75
2021/03/10 06:51:25;;;;;;;110.72;60.78;;;15.10;35.40;;;;;;5073671;28;20378;-85
2021/03/10 06:53:51;;;;;;;101.00;50.83;;;15.10;35.20;;;;;;5074783;28;20053;-84
2021/03/10 06:56:28;;;;;;;71.13;33.47;;;14.90;34.80;;;;;;5086412;28;20036;-85
2021/03/10 06:59:00;;;;;;;92.00;45.75;;;14.60;34.30;;;;;;5093516;28;20029;-85
2021/03/10 07:01:28;;;;;;;99.68;48.05;;;14.60;34.40;;;;;;5078419;28;20043;-84
2021/03/10 07:03:56;;;;;;;92.53;43.28;;;14.70;34.60;;;;;;5075551;28;20099;-86
2021/03/10 07:06:22;;;;;;;91.57;46.53;;;14.80;34.40;;;;;;5075158;28;20076;-85
2021/03/10 07:08:49;;;;;;;96.05;44.72;;;14.90;34.10;;;;;;5073587;28;20021;-85
2021/03/10 07:11:15;;;;;;;129.23;57.40;;;14.90;33.80;;;;;;5072396;28;20060;-81
2021/03/10 07:13:43;;;;;;;130.65;63.85;;;14.90;33.40;;;;;;5073259;28;20033;-81
2021/03/10 07:16:10;;;;;;;66.97;31.00;;;14.80;33.20;;;;;;5072614;28;20029;-81
2021/03/10 07:18:37;;;;;;;67.13;23.70;;;14.80;32.60;;;;;;5072872;28;20029;-84
2021/03/10 07:21:05;;;;;;;80.45;35.83;;;14.60;32.40;;;;;;5072879;28;20065;-80
2021/03/10 07:23:35;;;;;;;97.72;45.00;;;14.50;32.10;;;;;;5073047;28;20459;-81
2021/03/10 07:26:04;;;;;;;81.70;38.20;;;14.40;32.10;;;;;;5071871;28;20497;-80
2021/03/10 07:28:32;;;;;;;91.65;37.17;;;14.30;31.90;;;;;;5071038;28;20063;-79
2021/03/10 07:30:57;;;;;;;45.67;19.20;;;14.30;32.00;;;;;;5070527;28;20103;-80
2021/03/10 07:33:24;;;;;;;53.65;25.88;;;14.10;31.40;;;;;;5071808;28;20107;-79
2021/03/10 07:36:01;;;;;;;52.95;25.45;;;13.70;30.90;;;;;;5072329;28;20059;-79
2021/03/10 07:38:36;;;;;;;50.25;25.00;;;13.20;31.10;;;;;;5072479;28;20096;-80
2021/03/10 07:41:10;;;;;;;66.00;24.92;;;12.90;31.40;;;;;;5094684;28;20025;-79
2021/03/10 07:43:46;;;;;;;59.90;26.05;;;12.60;31.50;;;;;;5084892;28;20021;-80
2021/03/10 07:46:20;;;;;;;66.30;26.65;;;12.50;31.70;;;;;;5074282;28;20030;-81
2021/03/10 07:48:46;;;;;;;88.18;30.65;;;12.20;31.70;;;;;;5073237;28;20030;-80
2021/03/10 07:51:35;;;;;;;78.13;26.38;;;12.00;32.00;;;;;;5071642;28;20070;-81
2021/03/10 07:54:02;;;;;;;47.75;23.75;;;11.80;32.00;;;;;;5071846;28;20804;-80
2021/03/10 07:56:30;;;;;;;51.97;24.27;;;11.70;32.20;;;;;;5071690;28;20480;-81
2021/03/10 07:59:08;;;;;;;51.50;24.48;;;11.60;32.10;;;;;;5071678;28;20430;-80
2021/03/10 08:01:34;;;;;;;57.42;27.33;;;11.50;32.10;;;;;;5071250;28;20029;-80
2021/03/10 08:04:17;;;;;;;69.65;31.85;;;11.40;32.20;;;;;;5071790;28;20040;-81
2021/03/10 08:06:52;;;;;;;42.53;21.05;;;11.10;32.40;;;;;;5072144;28;20102;-83
2021/03/10 08:09:19;;;;;;;50.60;19.92;;;10.70;32.60;;;;;;5071881;28;20021;-82
2021/03/10 08:11:47;;;;;;;42.35;21.45;;;10.30;33.10;;;;;;5071597;28;20032;-83
2021/03/10 08:14:16;;;;;;;40.67;22.27;;;10.00;33.80;;;;;;5072158;28;20047;-81
2021/03/10 08:16:51;;;;;;;81.25;36.80;;;9.80;34.20;;;;;;5071470;28;20459;-82
2021/03/10 08:19:22;;;;;;;88.10;39.80;;;9.70;34.60;;;;;;5072007;28;20031;-82
2021/03/10 08:21:55;;;;;;;75.35;35.35;;;9.40;34.70;;;;;;5072115;28;20043;-82
2021/03/10 08:24:25;;;;;;;101.65;38.05;;;9.00;34.70;;;;;;5071961;28;20352;-83
2021/03/10 08:26:54;;;;;;;88.38;40.70;;;8.60;35.20;;;;;;5090511;28;20031;-82
2021/03/10 08:29:21;;;;;;;83.88;36.08;;;8.40;36.00;;;;;;5091544;28;20017;-82
2021/03/10 08:31:56;;;;;;;79.35;33.70;;;8.40;36.40;;;;;;5073286;28;20028;-82
2021/03/10 08:34:37;;;;;;;64.95;28.30;;;8.30;36.70;;;;;;5073381;28;20020;-83
2021/03/10 08:37:11;;;;;;;53.83;24.05;;;8.20;36.80;;;;;;5071794;28;20037;-82
2021/03/10 08:39:45;;;;;;;50.03;24.33;;;8.10;36.80;;;;;;5070837;28;20023;-83
2021/03/10 08:42:11;;;;;;;60.70;24.92;;;8.10;37.50;;;;;;5071071;28;20024;-81
2021/03/10 08:44:43;;;;;;;59.55;27.38;;;8.00;36.70;;;;;;5071545;28;20032;-83
2021/03/10 08:47:18;;;;;;;61.15;25.95;;;8.00;36.90;;;;;;5071728;28;20055;-83
2021/03/10 08:49:49;;;;;;;56.13;25.13;;;8.00;36.90;;;;;;5072065;28;20074;-83
2021/03/10 08:52:17;;;;;;;46.88;24.80;;;8.00;36.90;;;;;;5071353;28;20081;-82
2021/03/10 08:54:56;;;;;;;37.63;20.92;;;7.90;36.80;;;;;;5071588;28;20077;-83
2021/03/10 08:57:29;;;;;;;45.70;23.45;;;7.90;36.80;;;;;;5071829;28;20390;-82
2021/03/10 08:59:59;;;;;;;51.88;25.05;;;7.80;36.80;;;;;;5071433;28;20020;-82
2021/03/10 09:02:34;;;;;;;55.92;25.38;;;7.80;37.10;;;;;;5071923;28;20035;-83
2021/03/10 09:05:02;;;;;;;50.58;25.27;;;7.90;37.00;;;;;;5073139;28;20113;-82
2021/03/10 09:07:28;;;;;;;53.58;23.95;;;7.90;37.10;;;;;;5072087;28;20071;-83
2021/03/10 09:10:00;;;;;;;51.55;23.88;;;8.00;37.20;;;;;;5077046;28;20023;-82
2021/03/10 09:12:27;;;;;;;57.92;24.70;;;8.10;37.30;;;;;;5094692;28;20025;-82
2021/03/10 09:14:54;;;;;;;60.75;23.10;;;8.30;37.40;;;;;;5086096;28;20471;-82
2021/03/10 09:17:31;;;;;;;66.28;23.30;;;8.40;37.20;;;;;;5072844;28;20029;-81
2021/03/10 09:19:59;;;;;;;57.60;24.63;;;8.60;37.20;;;;;;5072256;28;20048;-81
2021/03/10 09:22:25;;;;;;;61.85;25.48;;;8.80;37.20;;;;;;5070619;28;20379;-82
2021/03/10 09:24:57;;;;;;;56.42;25.23;;;9.00;37.10;;;;;;5071599;28;20025;-79
2021/03/10 09:27:30;;;;;;;19.92;7.30;;;9.30;36.90;;;;;;5070841;28;20016;-81
2021/03/10 09:30:05;;;;;;;16.77;7.32;;;9.30;35.70;;;;;;5071644;28;20089;-81
2021/03/10 09:32:44;;;;;;;12.55;6.68;;;9.10;35.10;;;;;;5070262;28;20036;-80
2021/03/10 09:35:13;;;;;;;15.68;8.15;;;9.00;35.00;;;;;;5071365;28;20558;-82
2021/03/10 09:37:50;;;;;;;17.23;9.73;;;8.90;34.90;;;;;;5071301;28;20033;-83
2021/03/10 09:40:19;;;;;;;13.88;7.03;;;8.80;34.60;;;;;;5071214;28;20024;-82
2021/03/10 09:42:54;;;;;;;18.30;7.55;;;8.80;34.90;;;;;;5071135;28;20089;-80
2021/03/10 09:45:26;;;;;;;12.30;7.20;;;8.80;34.50;;;;;;5071097;28;20020;-81
2021/03/10 09:47:52;;;;;;;16.98;7.22;;;8.70;34.60;;;;;;5071152;28;20032;-81
2021/03/10 09:50:34;;;;;;;16.67;8.43;;;8.80;34.80;;;;;;5071899;28;20479;-81
2021/03/10 09:53:21;;;;;;;14.18;6.97;;;8.80;34.40;;;;;;5074863;28;20447;-83
2021/03/10 09:55:48;;;;;;;21.73;8.82;;;8.90;34.40;;;;;;5084722;28;20037;-80
2021/03/10 09:58:13;;;;;;;17.58;6.53;;;9.10;34.70;;;;;;5096320;28;20008;-82
2021/03/10 10:00:41;;;;;;;12.65;6.78;;;9.00;33.80;;;;;;5080669;28;20021;-81
2021/03/10 10:03:08;;;;;;;15.32;7.50;;;8.80;33.60;;;;;;5075478;28;20420;-81
2021/03/10 10:05:37;;;;;;;20.40;7.28;;;8.30;33.80;;;;;;5076262;28;20028;-81
2021/03/10 10:08:05;;;;;;;28.13;8.00;;;8.10;34.10;;;;;;5075965;28;20049;-81
2021/03/10 10:10:34;;;;;;;26.83;9.23;;;8.10;34.30;;;;;;5075763;28;20044;-81
2021/03/10 10:13:00;;;;;;;14.88;6.95;;;7.90;34.10;;;;;;5075611;28;20375;-73
2021/03/10 10:15:30;;;;;;;14.43;7.43;;;7.60;34.30;;;;;;5073177;28;20028;-73
2021/03/10 10:17:58;;;;;;;15.60;7.70;;;7.50;34.50;;;;;;5070699;28;20021;-74
2021/03/10 10:20:26;;;;;;;13.30;7.22;;;7.60;34.60;;;;;;5072142;28;20391;-74
2021/03/10 10:22:52;;;;;;;20.55;7.32;;;7.70;34.90;;;;;;5073925;28;20116;-74
2021/03/10 10:25:18;;;;;;;14.75;7.53;;;8.10;34.90;;;;;;5073611;28;20152;-75
2021/03/10 10:27:45;;;;;;;20.75;8.90;;;8.40;34.60;;;;;;5073622;28;20170;-73
2021/03/10 10:30:14;;;;;;;11.38;6.50;;;8.80;34.20;;;;;;5073500;28;20025;-74
2021/03/10 10:32:48;;;;;;;13.00;6.32;;;9.00;33.50;;;;;;5073652;28;20028;-74
2021/03/10 10:35:16;;;;;;;22.77;10.32;;;8.90;33.00;;;;;;5073521;28;20021;-73
2021/03/10 10:37:42;;;;;;;19.25;7.65;;;9.00;33.20;;;;;;5073187;28;20024;-73
2021/03/10 10:40:10;;;;;;;13.38;6.82;;;9.10;32.70;;;;;;5072987;28;20036;-73
2021/03/10 10:42:36;;;;;;;15.70;6.40;;;9.00;32.50;;;;;;5073339;28;20017;-75
2021/03/10 10:45:04;;;;;;;14.13;6.28;;;8.80;32.30;;;;;;5073460;28;20043;-75
2021/03/10 10:47:30;;;;;;;13.35;6.60;;;8.50;32.40;;;;;;5073385;28;20039;-73
2021/03/10 10:49:56;;;;;;;17.42;7.85;;;8.20;33.10;;;;;;5072553;28;20036;-74
2021/03/10 10:52:22;;;;;;;12.38;6.53;;;8.30;33.30;;;;;;5073153;28;20033;-74
2021/03/10 10:54:47;;;;;;;11.85;6.20;;;8.40;33.10;;;;;;5072996;28;20057;-73
2021/03/10 10:57:13;;;;;;;18.65;7.97;;;8.00;32.70;;;;;;5071767;28;20469;-75
2021/03/10 10:59:39;;;;;;;13.80;7.97;;;7.60;33.20;;;;;;5072864;28;20116;-79
2021/03/10 11:02:05;;;;;;;13.90;7.25;;;7.40;33.60;;;;;;5071870;28;20439;-73
2021/03/10 11:04:31;;;;;;;24.48;10.45;;;7.20;33.60;;;;;;5072577;28;20072;-74
2021/03/10 11:06:57;;;;;;;24.00;8.60;;;6.90;34.00;;;;;;5072372;28;20067;-74
2021/03/10 11:09:23;;;;;;;11.07;5.97;;;6.80;34.40;;;;;;5072808;28;20042;-76
2021/03/10 11:11:52;;;;;;;25.00;7.53;;;6.70;34.50;;;;;;5072042;28;20052;-75
2021/03/10 11:14:18;;;;;;;13.82;7.20;;;6.70;35.00;;;;;;5072366;28;20082;-74
2021/03/10 11:16:43;;;;;;;24.92;8.52;;;6.80;34.90;;;;;;5072408;28;20387;-74
2021/03/10 11:19:09;;;;;;;14.23;8.15;;;6.60;34.90;;;;;;5071215;28;20025;-80
2021/03/10 11:21:35;;;;;;;15.07;6.38;;;6.40;35.20;;;;;;5073213;28;20052;-80
2021/03/10 11:24:01;;;;;;;16.65;7.70;;;6.20;35.10;;;;;;5072467;28;20024;-81
2021/03/10 11:26:26;;;;;;;12.73;7.43;;;6.10;35.60;;;;;;5072231;28;20025;-80
2021/03/10 11:28:52;;;;;;;23.73;8.27;;;6.00;35.70;;;;;;5087725;28;20024;-81
2021/03/10 11:31:18;;;;;;;10.77;6.53;;;6.00;35.60;;;;;;5082505;28;20445;-82
2021/03/10 11:33:43;;;;;;;16.20;6.57;;;5.60;35.70;;;;;;5072672;28;20025;-81
2021/03/10 11:36:10;;;;;;;15.13;7.32;;;5.20;35.70;;;;;;5073814;28;20020;-81
2021/03/10 11:38:36;;;;;;;13.65;6.60;;;4.70;36.10;;;;;;5072847;28;20104;-81
2021/03/10 11:41:02;;;;;;;17.33;6.75;;;4.30;36.40;;;;;;5072707;28;20028;-79
2021/03/10 11:43:28;;;;;;;17.00;8.10;;;4.10;37.10;;;;;;5071965;28;20029;-80
2021/03/10 11:45:54;;;;;;;24.17;11.38;;;4.00;37.40;;;;;;5071778;28;20367;-81
2021/03/10 11:48:19;;;;;;;14.98;7.55;;;3.80;37.40;;;;;;5072444;28;20071;-80
2021/03/10 11:50:45;;;;;;;15.75;6.80;;;3.70;37.90;;;;;;5072130;28;20801;-81
2021/03/10 11:53:11;;;;;;;16.75;7.20;;;3.70;38.10;;;;;;5072218;28;20059;-82
2021/03/10 11:55:37;;;;;;;24.98;9.18;;;3.70;38.40;;;;;;5073594;28;20356;-81
2021/03/10 11:58:03;;;;;;;17.98;6.75;;;3.60;38.50;;;;;;5072460;28;20418;-81
2021/03/10 12:00:29;;;;;;;18.27;7.45;;;3.70;38.70;;;;;;5072559;28;20017;-80
2021/03/10 12:02:55;;;;;;;20.25;7.30;;;3.80;38.70;;;;;;5072389;28;20090;-81
2021/03/10 12:05:21;;;;;;;16.08;7.07;;;3.80;38.40;;;;;;5072211;28;20072;-81
2021/03/10 12:07:48;;;;;;;27.98;7.20;;;3.70;38.80;;;;;;5072913;28;20717;-81
2021/03/10 12:10:15;;;;;;;11.13;6.75;;;3.80;39.00;;;;;;5076795;28;20025;-78
2021/03/10 12:12:41;;;;;;;17.45;6.53;;;3.80;38.40;;;;;;5085802;28;20025;-82
2021/03/10 12:15:08;;;;;;;11.85;6.45;;;3.60;38.40;;;;;;5077231;28;20035;-80
2021/03/10 12:17:34;;;;;;;14.55;7.55;;;3.30;38.60;;;;;;5073617;28;20025;-80
2021/03/10 12:20:01;;;;;;;18.73;7.72;;;3.10;38.90;;;;;;5073346;28;20031;-82
2021/03/10 12:22:27;;;;;;;12.50;5.80;;;3.20;39.60;;;;;;5072657;28;20020;-81
2021/03/10 12:24:52;;;;;;;19.85;7.63;;;3.20;39.30;;;;;;5072693;28;20400;-79
2021/03/10 12:27:24;;;;;;;17.70;7.18;;;3.10;39.70;;;;;;5070708;28;20025;-79
2021/03/10 12:29:54;;;;;;;30.75;11.55;;;3.30;39.90;;;;;;5072051;28;20021;-81
2021/03/10 12:32:21;;;;;;;35.13;12.05;;;3.50;40.00;;;;;;5071700;28;20033;-81
2021/03/10 12:34:49;;;;;;;48.80;19.67;;;3.50;39.60;;;;;;5071701;28;20070;-80